createdAt,value
2018-02-14T00:01:18.812Z,17.80
2018-02-14T00:03:48.050Z,17.80
2018-02-14T00:06:17.430Z,17.80
2018-02-14T00:08:45.680Z,17.80
2018-02-14T00:11:15.191Z,17.80
2018-02-14T00:13:44.866Z,17.70
2018-02-14T00:16:16.598Z,17.70
2018-02-14T00:18:45.444Z,17.70
2018-02-14T00:21:19.478Z,17.70
2018-02-14T00:23:53.302Z,17.70
2018-02-14T00:26:24.419Z,17.70
2018-02-14T00:28:53.634Z,17.70
2018-02-14T00:31:24.268Z,17.70
2018-02-14T00:33:52.687Z,17.70
2018-02-14T00:36:23.007Z,17.70
2018-02-14T00:38:52.051Z,17.70
2018-02-14T00:41:20.239Z,17.70
2018-02-14T00:43:50.575Z,17.70
2018-02-14T00:46:18.851Z,17.70
2018-02-14T00:48:53.545Z,17.80
2018-02-14T00:51:24.136Z,17.80
2018-02-14T00:53:52.685Z,17.70
2018-02-14T00:56:21.997Z,17.80
2018-02-14T00:58:51.973Z,17.80
2018-02-14T01:01:24.498Z,17.80
2018-02-14T01:03:53.530Z,17.80
2018-02-14T01:06:22.522Z,17.70
2018-02-14T01:08:53.331Z,17.70
2018-02-14T01:11:23.027Z,17.70
2018-02-14T01:13:51.293Z,17.70
2018-02-14T01:16:19.551Z,17.70
2018-02-14T01:18:48.766Z,17.70
2018-02-14T01:21:17.003Z,17.70
2018-02-14T01:23:45.199Z,17.70
2018-02-14T01:26:13.379Z,17.70
2018-02-14T01:28:43.291Z,17.70
2018-02-14T01:31:14.213Z,17.70
2018-02-14T01:33:42.511Z,17.70
2018-02-14T01:36:10.653Z,17.70
2018-02-14T01:38:40.463Z,17.70
2018-02-14T01:41:09.723Z,17.70
2018-02-14T01:43:37.996Z,17.70
2018-02-14T01:46:06.926Z,17.70
2018-02-14T01:48:38.815Z,17.70
2018-02-14T01:51:07.010Z,17.70
2018-02-14T01:53:35.332Z,17.70
2018-02-14T01:56:03.616Z,17.70
2018-02-14T01:58:31.984Z,17.70
2018-02-14T02:01:01.273Z,17.70
2018-02-14T02:03:29.706Z,17.70
2018-02-14T02:06:00.071Z,17.70
2018-02-14T02:08:28.303Z,17.70
2018-02-14T02:10:56.508Z,17.70
2018-02-14T02:13:24.809Z,17.70
2018-02-14T02:15:53.024Z,17.70
2018-02-14T02:18:21.445Z,17.70
2018-02-14T02:20:51.372Z,17.70
2018-02-14T02:23:19.636Z,17.70
2018-02-14T02:25:47.994Z,17.70
2018-02-14T02:28:16.222Z,17.70
2018-02-14T02:30:47.691Z,17.70
2018-02-14T02:33:24.914Z,17.70
2018-02-14T02:35:53.226Z,17.70
2018-02-14T02:38:21.486Z,17.70
2018-02-14T02:40:50.509Z,17.70
2018-02-14T02:43:18.891Z,17.70
2018-02-14T02:45:47.134Z,17.70
2018-02-14T02:48:15.395Z,17.70
2018-02-14T02:50:46.220Z,17.60
2018-02-14T02:53:15.213Z,17.70
2018-02-14T02:55:44.124Z,17.70
2018-02-14T02:58:12.280Z,17.70
2018-02-14T03:00:40.461Z,17.70
2018-02-14T03:03:08.650Z,17.70
2018-02-14T03:05:36.827Z,17.70
2018-02-14T03:08:04.997Z,17.70
2018-02-14T03:10:34.085Z,17.70
2018-02-14T03:13:02.247Z,17.70
2018-02-14T03:15:31.446Z,17.70
2018-02-14T03:17:59.627Z,17.70
2018-02-14T03:20:27.851Z,17.80
2018-02-14T03:22:56.070Z,17.70
2018-02-14T03:25:24.221Z,17.70
2018-02-14T03:27:53.138Z,17.70
2018-02-14T03:30:21.338Z,17.70
2018-02-14T03:32:49.671Z,17.70
2018-02-14T03:35:18.711Z,17.70
2018-02-14T03:37:47.074Z,17.70
2018-02-14T03:40:15.236Z,17.70
2018-02-14T03:42:44.606Z,17.70
2018-02-14T03:45:17.003Z,17.70
2018-02-14T03:47:45.198Z,17.70
2018-02-14T03:50:13.366Z,17.70
2018-02-14T03:52:41.575Z,17.70
2018-02-14T03:55:15.669Z,17.70
2018-02-14T03:57:43.846Z,17.70
2018-02-14T04:00:12.014Z,17.70
2018-02-14T04:02:40.166Z,17.70
2018-02-14T04:05:08.338Z,17.70
2018-02-14T04:07:36.542Z,17.70
2018-02-14T04:10:04.729Z,17.70
2018-02-14T04:12:33.391Z,17.70
2018-02-14T04:15:01.558Z,17.70
2018-02-14T04:17:29.704Z,17.80
2018-02-14T04:19:57.877Z,17.80
2018-02-14T04:22:26.152Z,17.80
2018-02-14T04:24:54.326Z,17.80
2018-02-14T04:27:22.483Z,17.90
2018-02-14T04:29:51.405Z,17.80
2018-02-14T04:32:19.564Z,17.80
2018-02-14T04:34:47.725Z,17.80
2018-02-14T04:37:15.866Z,17.80
2018-02-14T04:39:44.037Z,17.80
2018-02-14T04:42:12.214Z,17.70
2018-02-14T04:44:40.353Z,17.80
2018-02-14T04:47:08.499Z,17.70
2018-02-14T04:49:36.674Z,17.70
2018-02-14T04:52:04.870Z,17.70
2018-02-14T04:54:33.817Z,17.70
2018-02-14T04:57:02.753Z,17.70
2018-02-14T04:59:30.884Z,17.60
2018-02-14T05:01:59.041Z,17.70
2018-02-14T05:04:27.977Z,17.80
2018-02-14T05:06:56.925Z,17.80
2018-02-14T05:09:25.881Z,17.90
2018-02-14T05:11:54.351Z,17.90
2018-02-14T05:14:22.502Z,18.00
2018-02-14T05:16:50.645Z,18.10
2018-02-14T05:19:19.667Z,18.20
2018-02-14T05:21:47.925Z,18.20
2018-02-14T05:24:16.881Z,18.20
2018-02-14T05:26:45.063Z,18.20
2018-02-14T05:29:13.262Z,18.20
2018-02-14T05:31:41.444Z,18.20
2018-02-14T05:34:09.645Z,18.20
2018-02-14T05:39:21.876Z,18.20
2018-02-14T05:41:50.485Z,18.10
2018-02-14T05:44:23.873Z,18.10
2018-02-14T05:47:14.703Z,18.20
2018-02-14T05:49:42.919Z,18.20
2018-02-14T05:52:12.063Z,18.20
2018-02-14T05:55:03.948Z,18.10
2018-02-14T05:57:32.313Z,18.20
2018-02-14T06:00:00.627Z,18.20
2018-02-14T06:02:28.883Z,18.20
2018-02-14T06:04:59.095Z,18.30
2018-02-14T06:07:32.569Z,18.30
2018-02-14T06:10:01.563Z,18.30
2018-02-14T06:12:29.744Z,18.40
2018-02-14T06:14:58.744Z,18.40
2018-02-14T06:17:31.980Z,18.40
2018-02-14T06:20:01.314Z,18.40
2018-02-14T06:22:32.149Z,18.40
2018-02-14T06:28:04.635Z,18.40
2018-02-14T06:31:28.108Z,18.30
2018-02-14T06:34:02.639Z,18.40
2018-02-14T06:36:34.679Z,18.30
2018-02-14T06:39:20.374Z,18.40
2018-02-14T06:41:49.699Z,18.40
2018-02-14T06:44:18.611Z,18.40
2018-02-14T06:50:08.295Z,18.40
2018-02-14T06:52:36.790Z,18.40
2018-02-14T06:55:05.213Z,18.40
2018-02-14T06:57:33.520Z,18.40
2018-02-14T07:00:01.690Z,18.40
2018-02-14T07:02:29.886Z,18.40
2018-02-14T07:05:00.263Z,18.40
2018-02-14T07:07:32.040Z,18.40
2018-02-14T07:10:00.377Z,18.30
2018-02-14T07:12:34.094Z,18.30
2018-02-14T07:15:02.655Z,18.30
2018-02-14T07:17:31.711Z,18.30
2018-02-14T07:19:59.890Z,18.30
2018-02-14T07:22:29.550Z,18.30
2018-02-14T07:24:59.263Z,18.30
2018-02-14T07:27:28.167Z,18.30
2018-02-14T07:29:56.394Z,18.30
2018-02-14T07:32:25.275Z,18.30
2018-02-14T07:34:53.442Z,18.30
2018-02-14T07:37:22.444Z,18.30
2018-02-14T07:39:50.606Z,18.40
2018-02-14T07:42:18.754Z,18.40
2018-02-14T07:44:47.771Z,18.40
2018-02-14T07:47:16.719Z,18.40
2018-02-14T07:49:45.673Z,18.40
2018-02-14T07:52:13.874Z,18.50
2018-02-14T07:54:46.888Z,18.50
2018-02-14T07:57:22.560Z,18.40
2018-02-14T07:59:51.843Z,18.40
2018-02-14T08:02:20.109Z,18.40
2018-02-14T08:04:48.456Z,18.40
2018-02-14T08:07:19.582Z,18.40
2018-02-14T08:09:47.815Z,18.40
2018-02-14T08:12:16.306Z,18.40
2018-02-14T08:14:44.568Z,18.40
2018-02-14T08:17:12.919Z,18.40
2018-02-14T08:19:41.165Z,18.40
2018-02-14T08:22:10.124Z,18.50
2018-02-14T08:24:39.150Z,18.40
2018-02-14T08:27:16.134Z,18.50
2018-02-14T08:29:46.800Z,18.50
2018-02-14T08:32:15.110Z,18.40
2018-02-14T08:37:57.806Z,18.50
2018-02-14T08:40:29.067Z,18.50
2018-02-14T08:43:11.316Z,18.50
2018-02-14T08:45:39.914Z,18.50
2018-02-14T08:48:08.131Z,18.60
2018-02-14T08:50:36.381Z,18.60
2018-02-14T08:56:30.397Z,18.60
2018-02-14T09:02:07.885Z,18.60
2018-02-14T09:08:13.883Z,18.60
2018-02-14T09:20:04.561Z,18.50
2018-02-14T09:22:35.457Z,18.50
2018-02-14T09:25:07.483Z,18.40
2018-02-14T09:27:56.459Z,18.50
2018-02-14T09:30:25.612Z,18.50
2018-02-14T09:49:29.918Z,18.40
2018-02-14T09:51:59.978Z,18.40
2018-02-14T09:54:28.280Z,18.40
2018-02-14T09:56:56.595Z,18.40
2018-02-14T09:59:24.927Z,18.40
2018-02-14T10:01:53.117Z,18.40
2018-02-14T10:04:27.074Z,18.40
2018-02-14T10:06:55.435Z,18.40
2018-02-14T10:09:23.722Z,18.40
2018-02-14T10:11:51.972Z,18.40
2018-02-14T10:14:21.112Z,18.40
2018-02-14T10:16:49.480Z,18.40
2018-02-14T10:19:22.708Z,18.40
2018-02-14T10:21:51.006Z,18.40
2018-02-14T10:24:19.247Z,18.40
2018-02-14T10:26:48.495Z,18.40
2018-02-14T10:29:17.795Z,18.40
2018-02-14T10:31:46.018Z,18.40
2018-02-14T10:34:14.946Z,18.40
2018-02-14T10:36:43.269Z,18.40
2018-02-14T10:39:14.211Z,18.40
2018-02-14T10:41:43.498Z,18.40
2018-02-14T10:44:11.756Z,18.40
2018-02-14T10:46:40.079Z,18.40
2018-02-14T10:49:08.294Z,18.40
2018-02-14T10:51:45.047Z,18.40
2018-02-14T10:54:13.507Z,18.50
2018-02-14T10:56:45.292Z,18.40
2018-02-14T10:59:20.850Z,18.40
2018-02-14T11:01:55.395Z,18.40
2018-02-14T11:04:23.788Z,18.40
2018-02-14T11:06:52.796Z,18.40
2018-02-14T11:09:27.267Z,18.40
2018-02-14T11:11:56.271Z,18.40
2018-02-14T11:14:24.468Z,18.40
2018-02-14T11:17:01.806Z,18.30
2018-02-14T11:19:32.107Z,18.40
2018-02-14T11:22:00.440Z,18.30
2018-02-14T11:24:30.252Z,18.30
2018-02-14T12:16:20.132Z,18.20
2018-02-14T12:18:49.361Z,18.20
2018-02-14T12:21:18.704Z,18.20
2018-02-14T12:23:46.963Z,18.30
2018-02-14T12:26:44.517Z,18.20
2018-02-14T12:29:28.386Z,18.30
2018-02-14T12:31:57.315Z,18.20
2018-02-14T12:37:37.633Z,18.20
2018-02-14T12:40:15.124Z,18.30
2018-02-14T12:42:49.100Z,18.20
2018-02-14T12:45:55.376Z,18.20
2018-02-14T12:48:24.062Z,18.20
2018-02-14T12:51:18.881Z,18.20
2018-02-14T12:53:54.122Z,18.20
2018-02-14T12:56:34.328Z,18.20
2018-02-14T12:59:16.134Z,18.20
2018-02-14T13:01:44.529Z,18.30
2018-02-14T13:04:13.164Z,18.30
2018-02-14T13:07:01.624Z,18.30
2018-02-14T13:09:34.861Z,18.30
2018-02-14T13:12:03.178Z,18.30
2018-02-14T13:14:34.781Z,18.30
2018-02-14T13:17:03.393Z,18.30
2018-02-14T13:19:33.879Z,18.30
2018-02-14T13:22:02.048Z,18.30
2018-02-14T13:24:30.468Z,18.30
2018-02-14T13:27:06.525Z,18.30
2018-02-14T13:29:34.811Z,18.30
2018-02-14T13:32:02.997Z,18.30
2018-02-14T13:37:31.142Z,18.20
2018-02-14T13:40:00.072Z,18.10
2018-02-14T13:42:41.823Z,18.20
2018-02-14T13:56:14.758Z,18.10
2018-02-14T14:04:44.134Z,18.00
2018-02-14T14:07:36.925Z,18.00
2018-02-14T14:45:56.974Z,18.00
2018-02-14T14:55:52.263Z,18.00
2018-02-14T15:01:44.615Z,18.10
2018-02-14T15:04:14.194Z,18.10
2018-02-14T15:22:22.681Z,18.10
2018-02-14T15:28:06.313Z,18.10
2018-02-14T15:33:39.892Z,18.10
2018-02-14T15:39:48.041Z,18.20
2018-02-14T15:46:00.633Z,18.10
2018-02-14T16:13:54.935Z,18.20
2018-02-14T17:10:02.786Z,18.30
2018-02-14T19:00:08.933Z,18.40
2018-02-14T19:06:29.952Z,18.50
2018-02-14T19:09:02.102Z,18.40
2018-02-14T19:11:39.671Z,18.40
2018-02-14T19:14:07.936Z,18.40
2018-02-14T19:16:37.642Z,18.50
2018-02-14T19:22:32.727Z,18.50
2018-02-14T19:28:02.917Z,18.50
2018-02-14T19:33:49.456Z,18.50
2018-02-14T19:36:17.739Z,18.40
2018-02-14T19:41:24.372Z,18.50
2018-02-14T19:43:53.814Z,18.50
2018-02-14T19:46:40.173Z,18.50
2018-02-14T19:49:26.426Z,18.50
2018-02-14T19:51:54.700Z,18.40
2018-02-14T19:54:24.089Z,18.40
2018-02-14T19:56:52.612Z,18.40
2018-02-14T19:59:23.159Z,18.50
2018-02-14T20:01:51.558Z,18.40
2018-02-14T20:04:20.986Z,18.50
2018-02-14T20:06:52.423Z,18.50
2018-02-14T20:09:21.738Z,18.50
2018-02-14T20:11:51.740Z,18.50
2018-02-14T20:14:20.052Z,18.60
2018-02-14T20:16:49.175Z,18.60
2018-02-14T20:19:18.661Z,18.60
2018-02-14T20:21:47.039Z,18.60
2018-02-14T20:24:15.268Z,18.50
2018-02-14T20:26:43.542Z,18.50
2018-02-14T20:29:24.716Z,18.50
2018-02-14T20:31:53.005Z,18.60
2018-02-14T20:34:21.218Z,18.50
2018-02-14T20:36:49.547Z,18.60
2018-02-14T20:39:17.875Z,18.60
2018-02-14T20:41:48.379Z,18.70
2018-02-14T20:44:16.647Z,18.60
2018-02-14T20:46:44.866Z,18.70
2018-02-14T20:49:15.380Z,18.80
2018-02-14T20:51:44.390Z,18.70
2018-02-14T20:54:13.452Z,18.80
2018-02-14T20:56:42.580Z,18.70
2018-02-14T20:59:13.806Z,18.70
2018-02-14T21:01:42.793Z,18.60
2018-02-14T21:04:12.652Z,18.50
2018-02-14T21:06:41.781Z,18.50
2018-02-14T21:09:10.062Z,18.40
2018-02-14T21:11:38.286Z,18.30
2018-02-14T21:14:06.505Z,18.20
2018-02-14T21:16:34.731Z,18.10
2018-02-14T21:19:04.094Z,18.10
2018-02-14T21:21:33.218Z,18.00
2018-02-14T21:24:01.413Z,18.00
2018-02-14T21:26:29.705Z,18.00
2018-02-14T21:28:58.047Z,17.90
2018-02-14T21:31:26.341Z,17.90
2018-02-14T21:33:54.518Z,17.90
2018-02-14T21:36:22.725Z,17.90
2018-02-14T21:38:50.905Z,17.90
2018-02-14T21:41:19.075Z,17.80
2018-02-14T21:43:47.351Z,17.80
2018-02-14T21:46:15.543Z,17.80
2018-02-14T21:48:44.500Z,17.80
2018-02-14T21:51:12.717Z,17.80
2018-02-14T21:53:41.083Z,17.80
2018-02-14T21:56:10.329Z,17.80
2018-02-14T21:58:38.592Z,17.80
2018-02-14T22:01:07.380Z,17.80
2018-02-14T22:03:36.047Z,17.80
2018-02-14T22:06:04.202Z,17.80
2018-02-14T22:08:33.220Z,17.70
2018-02-14T22:11:01.445Z,17.80
2018-02-14T22:13:30.523Z,17.70
2018-02-14T22:15:58.683Z,17.70
2018-02-14T22:18:26.858Z,17.70
2018-02-14T22:20:55.135Z,17.80
2018-02-14T22:23:23.319Z,17.70
2018-02-14T22:25:51.486Z,17.80
2018-02-14T22:28:19.824Z,17.80
2018-02-14T22:30:48.983Z,17.80
2018-02-14T22:33:17.369Z,17.70
2018-02-14T22:35:45.599Z,17.80
2018-02-14T22:38:13.802Z,17.80
2018-02-14T22:40:42.883Z,17.80
2018-02-14T22:43:12.234Z,17.70
2018-02-14T22:45:40.841Z,17.70
2018-02-14T22:48:09.003Z,17.70
2018-02-14T22:50:37.213Z,17.70
2018-02-14T22:53:05.765Z,17.70
2018-02-14T22:55:34.136Z,17.70
2018-02-14T22:58:02.389Z,17.70
2018-02-14T23:00:31.420Z,17.70
2018-02-14T23:03:00.123Z,17.70
2018-02-14T23:05:28.337Z,17.70
2018-02-14T23:07:57.614Z,17.60
2018-02-14T23:10:26.739Z,17.60
2018-02-14T23:12:55.904Z,17.60
2018-02-14T23:15:24.390Z,17.60
2018-02-14T23:17:52.833Z,17.60
2018-02-14T23:20:21.094Z,17.60
2018-02-14T23:22:49.270Z,17.60
2018-02-14T23:25:18.248Z,17.50
2018-02-14T23:27:46.421Z,17.50
2018-02-14T23:30:14.603Z,17.50
2018-02-14T23:32:42.798Z,17.50
2018-02-14T23:35:10.992Z,17.50
2018-02-14T23:37:39.169Z,17.50
2018-02-14T23:40:07.406Z,17.50
2018-02-14T23:42:35.612Z,17.50
2018-02-14T23:45:03.769Z,17.50
2018-02-14T23:47:31.990Z,17.50
2018-02-14T23:50:01.080Z,17.40
2018-02-14T23:52:30.017Z,17.40
2018-02-14T23:54:58.356Z,17.40
2018-02-14T23:57:26.937Z,17.40
2018-02-14T23:59:55.894Z,17.40
